Time;durP1;ratioP1;P1;durP2;ratioP2;P2;SDS_P1;SDS_P2;PMS_P1;PMS_P2;Temp;Humidity;BMP_temperature;BMP_pressure;BME280_temperature;BME280_humidity;BME280_pressure;Samples;Min_cycle;Max_cycle;Signal;HPM_P1;HPM_P2
2021/01/31 00:00:32;;;;;;;;;;;;;;;1.92;79.44;98214.69;3103998;28;19934;-78
2021/01/31 00:02:03;;;;;;;;;;;;;;;1.85;79.67;98208.31;3101312;28;19953;-78
2021/01/31 00:03:34;;;;;;;;;;;;;;;1.84;79.36;98204.00;3099677;28;20444;-77
2021/01/31 00:05:06;;;;;;;;;;;;;;;1.79;79.54;98203.56;3101327;28;19929;-78
2021/01/31 00:06:37;;;;;;;;;;;;;;;1.79;79.94;98208.84;3104852;28;20685;-78
2021/01/31 00:08:08;;;;;;;;;;;;;;;1.86;79.40;98207.34;3105343;28;20036;-78
2021/01/31 00:09:40;;;;;;;;;;;;;;;1.81;79.70;98213.00;3103819;28;20429;-77
2021/01/31 00:11:12;;;;;;;;;;;;;;;1.83;79.31;98210.22;3099236;28;19984;-77
2021/01/31 00:12:43;;;;;;;;;;;;;;;1.81;79.43;98212.16;3093282;28;20000;-77
2021/01/31 00:14:14;;;;;;;;;;;;;;;1.90;79.07;98202.63;3092905;28;19934;-77
2021/01/31 00:15:46;;;;;;;;;;;;;;;1.90;79.55;98208.72;3098071;28;19969;-77
2021/01/31 00:17:16;;;;;;;;;;;;;;;1.89;78.87;98212.31;3095079;28;19926;-77
2021/01/31 00:18:48;;;;;;;;;;;;;;;1.83;78.80;98211.09;3094756;28;20354;-77
2021/01/31 00:20:23;;;;;;;;;;;;;;;1.85;78.81;98211.75;3097205;28;20423;-77
2021/01/31 00:21:58;;;;;;;;;;;;;;;1.84;78.96;98220.63;3092269;28;20388;-77
2021/01/31 00:23:29;;;;;;;;;;;;;;;1.91;79.12;98222.75;3099400;28;19988;-77
2021/01/31 00:25:00;;;;;;;;;;;;;;;2.01;78.68;98226.25;3094055;28;19993;-77
2021/01/31 00:26:31;;;;;;;;;;;;;;;1.91;78.59;98223.56;3097947;28;19932;-76
2021/01/31 00:28:03;;;;;;;;;;;;;;;1.92;78.43;98225.25;3097420;28;19933;-77
2021/01/31 00:29:34;;;;;;;;;;;;;;;1.86;78.73;98217.88;3096430;28;20047;-77
2021/01/31 00:31:06;;;;;;;;;;;;;;;1.81;78.56;98220.06;3097554;28;20012;-77
2021/01/31 00:32:37;;;;;;;;;;;;;;;1.79;78.74;98219.38;3096559;28;20329;-77
2021/01/31 00:34:08;;;;;;;;;;;;;;;1.86;78.51;98220.50;3091930;28;19980;-77
2021/01/31 00:35:40;;;;;;;;;;;;;;;1.83;78.50;98220.78;3101048;28;19925;-77
2021/01/31 00:37:11;;;;;;;;;;;;;;;1.80;78.55;98207.84;3094274;28;19933;-78
2021/01/31 00:38:42;;;;;;;;;;;;;;;1.82;78.44;98217.31;3097346;28;19952;-77
2021/01/31 00:40:14;;;;;;;;;;;;;;;1.83;78.48;98215.50;3094198;28;20098;-77
2021/01/31 00:41:46;;;;;;;;;;;;;;;1.82;78.31;98211.19;3087883;28;20220;-78
2021/01/31 00:43:18;;;;;;;;;;;;;;;1.86;78.31;98202.06;3091626;28;19933;-78
2021/01/31 00:44:50;;;;;;;;;;;;;;;1.93;78.08;98213.72;3098262;28;19930;-77
2021/01/31 00:46:21;;;;;;;;;;;;;;;1.86;78.06;98202.06;3093523;28;20356;-78
2021/01/31 00:47:52;;;;;;;;;;;;;;;1.89;78.05;98201.78;3100925;28;20307;-79
2021/01/31 00:49:23;;;;;;;;;;;;;;;1.81;78.49;98204.25;3093569;28;19926;-77
2021/01/31 00:50:54;;;;;;;;;;;;;;;1.87;78.18;98201.09;3094096;28;19926;-78
2021/01/31 00:52:25;;;;;;;;;;;;;;;1.80;78.08;98213.97;3093267;28;20421;-78
2021/01/31 00:53:56;;;;;;;;;;;;;;;1.77;78.30;98208.13;3097771;28;20011;-77
2021/01/31 00:55:27;;;;;;;;;;;;;;;1.87;78.44;98209.00;3096293;28;20442;-77
2021/01/31 00:56:59;;;;;;;;;;;;;;;1.83;78.45;98218.13;3098081;28;20056;-77
2021/01/31 00:58:30;;;;;;;;;;;;;;;1.76;78.18;98217.81;3095309;28;20419;-78
2021/01/31 01:00:07;;;;;;;;;;;;;;;1.93;78.25;98216.38;3102625;28;20315;-78
2021/01/31 01:01:38;;;;;;;;;;;;;;;1.92;77.86;98222.59;3094496;28;19954;-77
2021/01/31 01:03:10;;;;;;;;;;;;;;;1.93;77.77;98221.63;3094864;28;19969;-77
2021/01/31 01:04:42;;;;;;;;;;;;;;;1.85;77.84;98227.56;3101534;28;19973;-78
2021/01/31 01:06:13;;;;;;;;;;;;;;;1.83;77.52;98221.63;3095144;28;19973;-77
2021/01/31 01:07:44;;;;;;;;;;;;;;;1.83;78.01;98223.41;3094733;28;19925;-77
2021/01/31 01:09:15;;;;;;;;;;;;;;;1.97;77.67;98230.97;3098606;28;20045;-78
2021/01/31 01:10:46;;;;;;;;;;;;;;;1.88;77.34;98226.50;3095871;28;19930;-77
2021/01/31 01:12:18;;;;;;;;;;;;;;;1.88;77.81;98226.50;3095616;28;19925;-77
2021/01/31 01:13:49;;;;;;;;;;;;;;;1.86;77.98;98228.41;3099434;28;19992;-78
2021/01/31 01:15:21;;;;;;;;;;;;;;;1.95;77.88;98235.53;3091218;28;19940;-78
2021/01/31 01:16:52;;;;;;;;;;;;;;;1.92;77.70;98237.59;3097996;28;19965;-77
2021/01/31 01:18:23;;;;;;;;;;;;;;;1.98;76.73;98237.91;3095063;28;19968;-77
2021/01/31 01:19:54;;;;;;;;;;;;;;;1.85;77.02;98238.09;3097581;28;19965;-77
2021/01/31 01:21:25;;;;;;;;;;;;;;;1.74;77.55;98229.47;3097897;28;19933;-77
2021/01/31 01:22:56;;;;;;;;;;;;;;;1.82;77.63;98234.91;3094457;28;20399;-78
2021/01/31 01:24:27;;;;;;;;;;;;;;;1.81;77.71;98230.59;3097701;28;20483;-77
2021/01/31 01:26:00;;;;;;;;;;;;;;;1.83;77.18;98239.22;3100816;28;19929;-77
2021/01/31 01:27:34;;;;;;;;;;;;;;;1.86;77.06;98239.78;3097363;28;19949;-77
2021/01/31 01:29:06;;;;;;;;;;;;;;;1.83;77.16;98250.59;3108800;28;20028;-78
2021/01/31 01:30:36;;;;;;;;;;;;;;;1.83;77.36;98244.50;3104055;28;20407;-78
2021/01/31 01:32:07;;;;;;;;;;;;;;;1.92;76.76;98240.22;3106287;28;19930;-77
2021/01/31 01:33:38;;;;;;;;;;;;;;;1.84;76.77;98236.44;3106600;28;19965;-77
2021/01/31 01:35:10;;;;;;;;;;;;;;;1.83;77.17;98239.22;3100753;28;19980;-77
2021/01/31 01:36:41;;;;;;;;;;;;;;;1.85;76.76;98239.94;3096101;28;20570;-79
2021/01/31 01:38:12;;;;;;;;;;;;;;;1.84;76.88;98240.88;3100965;28;19962;-77
2021/01/31 01:39:43;;;;;;;;;;;;;;;1.75;76.60;98239.06;3095419;28;19926;-77
2021/01/31 01:41:14;;;;;;;;;;;;;;;1.76;76.92;98243.34;3097983;28;19933;-78
2021/01/31 01:42:45;;;;;;;;;;;;;;;1.77;76.63;98240.56;3089494;28;19984;-77
2021/01/31 01:44:16;;;;;;;;;;;;;;;1.76;76.65;98240.72;3097894;28;19926;-78
2021/01/31 01:45:56;;;;;;;;;;;;;;;1.70;76.99;98234.19;3099408;28;19953;-77
2021/01/31 01:47:29;;;;;;;;;;;;;;;1.75;76.79;98231.16;3099920;28;20455;-78
2021/01/31 01:49:03;;;;;;;;;;;;;;;1.75;76.54;98237.22;3097079;28;19973;-78
2021/01/31 01:50:36;;;;;;;;;;;;;;;1.77;76.53;98245.84;3102053;28;19934;-77
2021/01/31 01:52:10;;;;;;;;;;;;;;;1.76;76.45;98259.16;3098668;28;19925;-78
2021/01/31 01:53:41;;;;;;;;;;;;;;;1.75;76.41;98241.69;3098242;28;19929;-78
2021/01/31 01:55:13;;;;;;;;;;;;;;;1.76;76.70;98256.53;3099118;28;19932;-78
2021/01/31 01:56:49;;;;;;;;;;;;;;;1.79;75.77;98253.63;3096948;28;19989;-79
2021/01/31 01:58:21;;;;;;;;;;;;;;;1.67;76.31;98256.34;3098882;28;19929;-78
2021/01/31 01:59:53;;;;;;;;;;;;;;;1.78;76.12;98252.78;3101682;28;19973;-77
2021/01/31 02:01:24;;;;;;;;;;;;;;;1.75;76.19;98257.50;3096317;28;20307;-77
2021/01/31 02:02:57;;;;;;;;;;;;;;;1.80;75.68;98255.28;3101263;28;19937;-78
2021/01/31 02:04:31;;;;;;;;;;;;;;;1.75;76.04;98258.31;3095614;28;21191;-77
2021/01/31 02:06:06;;;;;;;;;;;;;;;1.75;76.11;98262.75;3100403;28;19969;-77
2021/01/31 02:07:37;;;;;;;;;;;;;;;1.79;75.82;98267.63;3094828;28;19973;-77
2021/01/31 02:09:08;;;;;;;;;;;;;;;1.73;76.45;98267.31;3090989;28;19957;-77
2021/01/31 02:10:38;;;;;;;;;;;;;;;1.83;75.92;98270.84;3102436;28;20186;-77
2021/01/31 02:12:09;;;;;;;;;;;;;;;1.77;76.12;98277.47;3095800;28;19933;-77
2021/01/31 02:13:43;;;;;;;;;;;;;;;1.70;75.80;98271.88;3099134;28;20309;-77
2021/01/31 02:15:15;;;;;;;;;;;;;;;1.69;75.71;98269.38;3086531;28;19961;-77
2021/01/31 02:16:51;;;;;;;;;;;;;;;1.75;75.67;98273.31;3088557;28;19976;-77
2021/01/31 02:18:28;;;;;;;;;;;;;;;1.62;75.67;98274.34;3096746;28;19926;-77
2021/01/31 02:20:31;;;;;;;;;;;;;;;1.66;75.41;98280.19;3097120;28;19952;-77
2021/01/31 02:22:13;;;;;;;;;;;;;;;1.64;75.49;98282.13;3102408;28;20362;-77
2021/01/31 02:23:57;;;;;;;;;;;;;;;1.66;75.49;98280.19;3093635;28;19969;-76
2021/01/31 02:25:43;;;;;;;;;;;;;;;1.66;75.43;98280.19;3100725;28;20371;-77
2021/01/31 02:27:46;;;;;;;;;;;;;;;1.71;75.55;98278.81;3091216;28;20000;-77
2021/01/31 02:29:24;;;;;;;;;;;;;;;1.73;75.27;98276.06;3094360;28;19974;-77
2021/01/31 02:31:06;;;;;;;;;;;;;;;1.69;75.64;98272.88;3090435;28;19968;-78
2021/01/31 02:32:51;;;;;;;;;;;;;;;1.76;75.47;98274.97;3103071;28;19925;-77
2021/01/31 02:34:32;;;;;;;;;;;;;;;1.70;75.42;98282.41;3096360;28;20025;-77
2021/01/31 02:36:06;;;;;;;;;;;;;;;1.64;75.52;98287.41;3117202;28;19967;-77
2021/01/31 02:37:40;;;;;;;;;;;;;;;1.67;75.52;98287.13;3099881;28;19930;-77
2021/01/31 02:39:15;;;;;;;;;;;;;;;1.73;75.14;98283.13;3106377;28;19926;-78
2021/01/31 02:40:51;;;;;;;;;;;;;;;1.75;75.41;98281.22;3104263;28;19926;-78
2021/01/31 02:42:30;;;;;;;;;;;;;;;1.76;75.27;98274.97;3099915;28;19927;-78
2021/01/31 02:44:04;;;;;;;;;;;;;;;1.77;75.18;98277.47;3105996;28;19972;-78
2021/01/31 02:45:38;;;;;;;;;;;;;;;1.82;74.96;98271.81;3106778;28;19929;-78
2021/01/31 02:47:13;;;;;;;;;;;;;;;1.74;75.29;98285.66;3115238;28;19937;-79
2021/01/31 02:48:48;;;;;;;;;;;;;;;1.81;74.99;98275.41;3105435;28;19934;-77
2021/01/31 02:50:22;;;;;;;;;;;;;;;1.81;75.16;98283.31;3119786;28;19929;-76
2021/01/31 02:51:59;;;;;;;;;;;;;;;1.82;74.86;98282.34;3110455;28;19938;-78
2021/01/31 02:53:33;;;;;;;;;;;;;;;1.75;75.09;98281.22;3111513;28;19926;-77
2021/01/31 02:55:07;;;;;;;;;;;;;;;1.74;74.99;98283.03;3109504;28;19937;-79
2021/01/31 02:56:42;;;;;;;;;;;;;;;1.72;75.03;98279.69;3109897;28;19921;-77
2021/01/31 02:58:17;;;;;;;;;;;;;;;1.75;75.50;98278.56;3108148;28;19926;-77
2021/01/31 02:59:51;;;;;;;;;;;;;;;1.74;74.82;98272.47;3087456;28;19926;-77
2021/01/31 03:01:26;;;;;;;;;;;;;;;1.79;74.97;98280.00;3096518;28;19932;-77
2021/01/31 03:02:59;;;;;;;;;;;;;;;1.86;74.71;98270.59;3095600;28;19926;-77
2021/01/31 03:04:33;;;;;;;;;;;;;;;1.77;74.63;98276.66;3096928;28;20431;-78
2021/01/31 03:06:07;;;;;;;;;;;;;;;1.74;74.83;98275.13;3097511;28;19998;-77
2021/01/31 03:07:41;;;;;;;;;;;;;;;1.77;74.79;98276.66;3095235;28;19926;-77
2021/01/31 03:09:16;;;;;;;;;;;;;;;1.90;74.55;98269.34;3095183;28;20004;-77
2021/01/31 03:10:49;;;;;;;;;;;;;;;1.80;74.71;98277.22;3092582;28;19962;-77
2021/01/31 03:12:22;;;;;;;;;;;;;;;1.74;74.92;98288.28;3101596;28;19926;-77
2021/01/31 03:13:56;;;;;;;;;;;;;;;1.73;75.28;98285.75;3099958;28;20495;-78
2021/01/31 03:15:30;;;;;;;;;;;;;;;1.70;75.57;98290.31;3099854;28;19926;-77
2021/01/31 03:17:04;;;;;;;;;;;;;;;1.79;75.41;98301.06;3101957;28;20295;-78
2021/01/31 03:18:37;;;;;;;;;;;;;;;1.78;75.22;98300.22;3101233;28;19997;-78
2021/01/31 03:20:11;;;;;;;;;;;;;;;1.83;75.62;98298.03;3107606;28;19960;-77
2021/01/31 03:21:47;;;;;;;;;;;;;;;1.86;74.95;98295.13;3093727;28;19952;-78
2021/01/31 03:23:20;;;;;;;;;;;;;;;1.85;74.79;98300.53;3096640;28;19977;-77
2021/01/31 03:24:54;;;;;;;;;;;;;;;1.85;74.76;98306.63;3094788;28;19974;-78
2021/01/31 03:26:28;;;;;;;;;;;;;;;1.75;75.52;98311.00;3097004;28;20586;-78
2021/01/31 03:27:59;;;;;;;;;;;;;;;1.75;75.42;98315.47;3095795;28;19969;-77
2021/01/31 03:29:31;;;;;;;;;;;;;;;1.88;75.10;98316.09;3100930;28;20015;-77
2021/01/31 03:31:02;;;;;;;;;;;;;;;1.70;75.68;98318.50;3101757;28;19984;-77
2021/01/31 03:32:35;;;;;;;;;;;;;;;1.73;75.84;98328.78;3096821;28;19976;-77
2021/01/31 03:34:08;;;;;;;;;;;;;;;1.76;75.62;98322.41;3094388;28;19964;-77
2021/01/31 03:35:41;;;;;;;;;;;;;;;1.66;75.99;98315.28;3096246;28;19968;-77
2021/01/31 03:37:14;;;;;;;;;;;;;;;1.65;76.23;98318.06;3094140;28;19973;-77
2021/01/31 03:38:52;;;;;;;;;;;;;;;1.61;76.26;98308.72;3097841;28;20274;-78
2021/01/31 03:40:25;;;;;;;;;;;;;;;1.55;76.30;98315.34;3095586;28;19925;-78
2021/01/31 03:41:56;;;;;;;;;;;;;;;1.66;75.87;98311.78;3096022;28;20032;-78
2021/01/31 03:43:28;;;;;;;;;;;;;;;1.54;76.33;98309.25;3084860;28;20420;-77
2021/01/31 03:45:02;;;;;;;;;;;;;;;1.66;76.10;98310.00;3090453;28;20467;-77
2021/01/31 03:46:36;;;;;;;;;;;;;;;1.69;75.93;98309.75;3093661;28;19929;-77
2021/01/31 03:48:10;;;;;;;;;;;;;;;1.69;75.32;98306.28;3092236;28;19976;-77
2021/01/31 03:49:44;;;;;;;;;;;;;;;1.64;75.73;98311.94;3088362;28;19953;-77
2021/01/31 03:51:15;;;;;;;;;;;;;;;1.74;75.39;98319.91;3094810;28;19976;-77
2021/01/31 03:52:47;;;;;;;;;;;;;;;1.71;75.59;98317.53;3097845;28;20378;-77
2021/01/31 03:54:18;;;;;;;;;;;;;;;1.59;75.38;98311.50;3094135;28;19972;-77
2021/01/31 03:55:50;;;;;;;;;;;;;;;1.54;75.40;98316.31;3104802;28;19964;-77
2021/01/31 03:57:24;;;;;;;;;;;;;;;1.52;75.35;98315.59;3092638;28;19940;-77
2021/01/31 03:58:55;;;;;;;;;;;;;;;1.56;75.57;98323.13;3090686;28;20073;-77
2021/01/31 04:00:28;;;;;;;;;;;;;;;1.59;75.18;98326.47;3098679;28;19973;-78
2021/01/31 04:01:59;;;;;;;;;;;;;;;1.59;75.90;98329.94;3090100;28;19930;-77
2021/01/31 04:03:31;;;;;;;;;;;;;;;1.66;75.60;98330.22;3092285;28;19933;-77
2021/01/31 04:05:03;;;;;;;;;;;;;;;1.53;75.75;98331.28;3094887;28;20029;-77
2021/01/31 04:06:36;;;;;;;;;;;;;;;1.61;76.08;98329.81;3104232;28;19933;-77
2021/01/31 04:08:10;;;;;;;;;;;;;;;1.65;75.35;98328.59;3094883;28;19961;-77
2021/01/31 04:09:41;;;;;;;;;;;;;;;1.57;75.75;98334.50;3098506;28;20339;-77
2021/01/31 04:11:28;;;;;;;;;;;;;;;1.71;75.49;98335.97;3101672;28;19981;-77
2021/01/31 04:13:01;;;;;;;;;;;;;;;1.58;75.53;98330.91;3092526;28;19944;-77
2021/01/31 04:14:35;;;;;;;;;;;;;;;1.60;76.12;98333.41;3096406;28;19980;-77
2021/01/31 04:16:07;;;;;;;;;;;;;;;1.64;75.67;98325.09;3094709;28;19933;-77
2021/01/31 04:17:40;;;;;;;;;;;;;;;1.58;75.48;98323.00;3105693;28;19929;-77
2021/01/31 04:19:12;;;;;;;;;;;;;;;1.53;75.76;98320.75;3093237;28;20050;-78
2021/01/31 04:20:43;;;;;;;;;;;;;;;1.61;75.39;98321.91;3096016;28;20285;-77
2021/01/31 04:22:14;;;;;;;;;;;;;;;1.57;75.61;98321.34;3090918;28;20290;-77
2021/01/31 04:23:46;;;;;;;;;;;;;;;1.63;75.38;98318.16;3087566;28;20328;-77
2021/01/31 04:25:17;;;;;;;;;;;;;;;1.60;75.73;98328.97;3106167;28;20067;-77
2021/01/31 04:26:48;;;;;;;;;;;;;;;1.65;75.12;98312.78;3096220;28;19972;-77
2021/01/31 04:28:21;;;;;;;;;;;;;;;1.63;75.44;98312.91;3096342;28;19945;-77
2021/01/31 04:29:52;;;;;;;;;;;;;;;1.59;75.46;98315.94;3098527;28;20027;-78
2021/01/31 04:31:25;;;;;;;;;;;;;;;1.58;75.37;98323.00;3094511;28;19925;-77
2021/01/31 04:32:57;;;;;;;;;;;;;;;1.54;75.70;98309.25;3098360;28;19960;-77
2021/01/31 04:34:28;;;;;;;;;;;;;;;1.64;75.76;98306.66;3094924;28;19965;-77
2021/01/31 04:35:59;;;;;;;;;;;;;;;1.75;75.41;98307.56;3090036;28;20009;-77
2021/01/31 04:37:30;;;;;;;;;;;;;;;1.76;75.12;98302.16;3091209;28;20344;-77
2021/01/31 04:39:02;;;;;;;;;;;;;;;1.82;75.24;98303.41;3097539;28;19972;-78
2021/01/31 04:40:35;;;;;;;;;;;;;;;1.81;74.90;98299.13;3091676;28;19926;-78
2021/01/31 04:42:08;;;;;;;;;;;;;;;1.82;75.04;98300.78;3095840;28;19969;-77
2021/01/31 04:43:39;;;;;;;;;;;;;;;1.82;74.81;98301.63;3099108;28;20024;-77
2021/01/31 04:45:11;;;;;;;;;;;;;;;1.66;75.18;98296.00;3094004;28;20024;-77
2021/01/31 04:46:44;;;;;;;;;;;;;;;1.57;75.41;98300.25;3100339;28;19983;-77
2021/01/31 04:48:22;;;;;;;;;;;;;;;1.64;75.57;98303.22;3094620;28;19965;-77
2021/01/31 04:50:05;;;;;;;;;;;;;;;1.76;75.50;98303.97;3093496;28;19926;-77
2021/01/31 04:51:46;;;;;;;;;;;;;;;1.80;75.00;98305.34;3094708;28;19961;-77
2021/01/31 04:53:21;;;;;;;;;;;;;;;1.75;74.93;98308.38;3105707;28;20007;-77
2021/01/31 04:55:15;;;;;;;;;;;;;;;1.74;75.19;98313.78;3091021;28;20061;-77
2021/01/31 04:56:57;;;;;;;;;;;;;;;1.68;75.28;98313.34;3071760;28;19926;-78
2021/01/31 04:58:31;;;;;;;;;;;;;;;1.76;75.22;98317.13;3093441;28;19991;-77
2021/01/31 05:00:05;;;;;;;;;;;;;;;1.70;75.29;98315.84;3090729;28;20381;-78
2021/01/31 05:01:40;;;;;;;;;;;;;;;1.61;75.26;98314.00;3101850;28;19984;-78
2021/01/31 05:03:24;;;;;;;;;;;;;;;1.64;75.69;98322.47;3091530;28;19954;-78
2021/01/31 05:05:10;;;;;;;;;;;;;;;1.74;75.62;98319.06;3090668;28;19929;-77
2021/01/31 05:06:45;;;;;;;;;;;;;;;1.68;75.47;98316.00;3091389;28;20304;-77
2021/01/31 05:08:18;;;;;;;;;;;;;;;1.72;75.30;98319.19;3097491;28;19957;-77
2021/01/31 05:09:49;;;;;;;;;;;;;;;1.67;75.39;98322.22;3091417;28;19929;-77
2021/01/31 05:11:28;;;;;;;;;;;;;;;1.73;75.32;98327.91;3099870;28;19925;-78
2021/01/31 05:13:07;;;;;;;;;;;;;;;1.62;75.25;98327.03;3096808;28;19930;-77
2021/01/31 05:14:54;;;;;;;;;;;;;;;1.62;75.20;98316.50;3090522;28;20458;-77
2021/01/31 05:16:26;;;;;;;;;;;;;;;1.58;75.39;98320.38;3098914;28;19977;-78
2021/01/31 05:17:59;;;;;;;;;;;;;;;1.55;75.68;98324.09;3089634;28;19954;-78
2021/01/31 05:19:32;;;;;;;;;;;;;;;1.65;75.37;98333.88;3094000;28;19930;-78
2021/01/31 05:21:06;;;;;;;;;;;;;;;1.70;75.39;98332.47;3092680;28;19926;-78
2021/01/31 05:22:39;;;;;;;;;;;;;;;1.63;75.41;98333.97;3096300;28;19992;-78
2021/01/31 05:24:14;;;;;;;;;;;;;;;1.71;75.26;98330.69;3096665;28;19957;-77
2021/01/31 05:25:46;;;;;;;;;;;;;;;1.70;75.39;98332.47;3098984;28;19933;-78
2021/01/31 05:27:18;;;;;;;;;;;;;;;1.75;75.18;98339.19;3104768;28;19926;-79
2021/01/31 05:28:56;;;;;;;;;;;;;;;1.70;75.39;98334.28;3098917;28;19934;-79
2021/01/31 05:30:28;;;;;;;;;;;;;;;1.74;75.38;98337.50;3105103;28;19957;-79
2021/01/31 05:32:03;;;;;;;;;;;;;;;1.70;75.48;98335.13;3101567;28;19961;-78
2021/01/31 05:33:47;;;;;;;;;;;;;;;1.66;75.48;98339.00;3087386;28;19961;-78
2021/01/31 05:35:21;;;;;;;;;;;;;;;1.70;75.78;98347.47;3099913;28;19953;-77
2021/01/31 05:36:59;;;;;;;;;;;;;;;1.76;75.20;98343.47;3094252;28;19929;-78
2021/01/31 05:38:34;;;;;;;;;;;;;;;1.78;75.42;98341.56;3089536;28;19980;-78
2021/01/31 05:40:07;;;;;;;;;;;;;;;1.76;74.92;98352.22;3088851;28;19969;-79
2021/01/31 05:41:49;;;;;;;;;;;;;;;1.63;75.42;98339.25;3089026;28;20408;-78
2021/01/31 05:43:22;;;;;;;;;;;;;;;1.62;75.48;98336.75;3088970;28;19976;-77
2021/01/31 05:45:18;;;;;;;;;;;;;;;1.64;75.55;98335.66;3094077;28;20363;-78
2021/01/31 05:46:51;;;;;;;;;;;;;;;1.62;75.93;98337.56;3092800;28;19969;-78
2021/01/31 05:48:23;;;;;;;;;;;;;;;1.70;75.46;98344.84;3096852;28;19926;-77
2021/01/31 05:49:54;;;;;;;;;;;;;;;1.64;76.01;98333.00;3101533;28;19926;-76
2021/01/31 05:51:31;;;;;;;;;;;;;;;1.74;75.27;98337.50;3093965;28;19933;-77
2021/01/31 05:53:16;;;;;;;;;;;;;;;1.66;75.57;98346.03;3097195;28;19929;-77
2021/01/31 05:54:50;;;;;;;;;;;;;;;1.62;75.64;98352.56;3092891;28;19953;-77
2021/01/31 05:56:23;;;;;;;;;;;;;;;1.58;75.68;98349.34;3104068;28;19933;-78
2021/01/31 05:58:28;;;;;;;;;;;;;;;1.52;75.97;98353.31;3090617;28;19930;-77
2021/01/31 05:59:59;;;;;;;;;;;;;;;1.57;75.98;98358.22;3095297;28;19972;-78
2021/01/31 06:01:30;;;;;;;;;;;;;;;1.54;75.64;98361.09;3102318;28;19930;-78
2021/01/31 06:03:03;;;;;;;;;;;;;;;1.55;75.95;98357.50;3107934;28;19954;-78
2021/01/31 06:04:34;;;;;;;;;;;;;;;1.59;75.82;98358.91;3094681;28;19941;-78
2021/01/31 06:06:13;;;;;;;;;;;;;;;1.66;75.31;98357.44;3104569;28;19925;-77
2021/01/31 06:07:45;;;;;;;;;;;;;;;1.61;75.61;98356.97;3091966;28;20370;-78
2021/01/31 06:09:18;;;;;;;;;;;;;;;1.66;75.70;98360.06;3096886;28;19926;-77
2021/01/31 06:10:59;;;;;;;;;;;;;;;1.67;75.80;98367.00;3099680;28;19965;-77
2021/01/31 06:12:30;;;;;;;;;;;;;;;1.65;75.58;98363.66;3099089;28;19972;-78
2021/01/31 06:14:03;;;;;;;;;;;;;;;1.66;75.48;98367.13;3102863;28;20348;-77
2021/01/31 06:15:38;;;;;;;;;;;;;;;1.74;75.39;98367.34;3095751;28;19926;-77
2021/01/31 06:17:15;;;;;;;;;;;;;;;1.75;75.19;98362.88;3100092;28;20455;-77
2021/01/31 06:18:51;;;;;;;;;;;;;;;1.80;75.09;98360.69;3096145;28;20309;-76
2021/01/31 06:20:25;;;;;;;;;;;;;;;1.67;75.46;98364.38;3097512;28;19925;-78
2021/01/31 06:21:57;;;;;;;;;;;;;;;1.70;75.27;98361.47;3093812;28;19932;-78
2021/01/31 06:23:31;;;;;;;;;;;;;;;1.74;75.37;98366.47;3095987;28;19973;-78
2021/01/31 06:25:03;;;;;;;;;;;;;;;1.68;75.46;98363.41;3099628;28;19972;-78
2021/01/31 06:26:39;;;;;;;;;;;;;;;1.75;75.34;98363.72;3098319;28;19980;-77
2021/01/31 06:28:17;;;;;;;;;;;;;;;1.75;75.12;98371.63;3096850;28;19925;-77
2021/01/31 06:29:53;;;;;;;;;;;;;;;1.74;75.17;98374.38;3099870;28;20480;-77
2021/01/31 06:31:29;;;;;;;;;;;;;;;1.76;75.49;98385.63;3097384;28;19969;-78
2021/01/31 06:33:00;;;;;;;;;;;;;;;1.80;75.12;98382.63;3103635;28;19957;-77
2021/01/31 06:34:32;;;;;;;;;;;;;;;1.86;74.98;98383.91;3099695;28;19962;-77
2021/01/31 06:36:08;;;;;;;;;;;;;;;1.81;75.06;98380.81;3110598;28;19972;-78
2021/01/31 06:37:48;;;;;;;;;;;;;;;1.74;75.19;98382.28;3105399;28;19926;-79
2021/01/31 06:39:32;;;;;;;;;;;;;;;1.81;74.78;98384.28;3110859;28;19929;-77
2021/01/31 06:41:12;;;;;;;;;;;;;;;1.74;75.18;98385.78;3103751;28;19932;-77
2021/01/31 06:42:48;;;;;;;;;;;;;;;1.77;75.21;98385.50;3092262;28;19933;-77
2021/01/31 06:44:25;;;;;;;;;;;;;;;1.71;75.47;98392.13;3108063;28;19934;-77
2021/01/31 06:46:00;;;;;;;;;;;;;;;1.74;75.19;98395.47;3106052;28;19976;-77
2021/01/31 06:47:38;;;;;;;;;;;;;;;1.85;74.80;98395.41;3098414;28;19973;-77
2021/01/31 06:49:14;;;;;;;;;;;;;;;1.75;74.81;98390.06;3089932;28;19973;-78
2021/01/31 06:51:04;;;;;;;;;;;;;;;1.74;74.94;98395.47;3099677;28;20570;-77
2021/01/31 06:52:43;;;;;;;;;;;;;;;1.72;75.10;98395.59;3095115;28;19930;-77
2021/01/31 06:54:32;;;;;;;;;;;;;;;1.74;75.19;98398.94;3098770;28;19961;-77
2021/01/31 06:56:32;;;;;;;;;;;;;;;1.76;75.02;98406.72;3098156;28;20308;-77
2021/01/31 06:58:10;;;;;;;;;;;;;;;1.76;75.14;98412.00;3090733;28;19988;-77
2021/01/31 06:59:54;;;;;;;;;;;;;;;1.70;75.05;98402.78;3097116;28;19930;-78
2021/01/31 07:01:38;;;;;;;;;;;;;;;1.71;75.32;98417.66;3097541;28;19940;-77
2021/01/31 07:03:16;;;;;;;;;;;;;;;1.77;75.06;98409.22;3091400;28;20032;-77
2021/01/31 07:05:01;;;;;;;;;;;;;;;1.74;75.22;98419.19;3097490;28;19925;-77
2021/01/31 07:06:55;;;;;;;;;;;;;;;1.80;75.25;98423.94;3097448;28;20538;-77
2021/01/31 07:08:49;;;;;;;;;;;;;;;1.73;75.08;98423.63;3099013;28;20383;-77
2021/01/31 07:10:34;;;;;;;;;;;;;;;1.67;75.33;98427.59;3093582;28;20534;-77
2021/01/31 07:12:09;;;;;;;;;;;;;;;1.74;75.20;98425.31;3096664;28;19949;-77
2021/01/31 07:13:53;;;;;;;;;;;;;;;1.74;75.12;98414.75;3092884;28;19965;-78
2021/01/31 07:15:24;;;;;;;;;;;;;;;1.83;75.31;98413.13;3096594;28;19926;-77
2021/01/31 07:16:58;;;;;;;;;;;;;;;1.85;74.74;98427.03;3098076;28;19957;-77
2021/01/31 07:18:33;;;;;;;;;;;;;;;1.90;74.57;98424.00;3096455;28;20305;-77
2021/01/31 07:20:07;;;;;;;;;;;;;;;1.83;74.99;98421.03;3090163;28;19930;-77
2021/01/31 07:21:41;;;;;;;;;;;;;;;1.84;74.89;98426.19;3092355;28;19973;-77
2021/01/31 07:23:13;;;;;;;;;;;;;;;1.86;75.01;98426.88;3095667;28;19926;-77
2021/01/31 07:24:48;;;;;;;;;;;;;;;1.92;74.82;98428.19;3090001;28;20017;-77
2021/01/31 07:26:25;;;;;;;;;;;;;;;1.92;74.56;98437.91;3098948;28;19971;-77
2021/01/31 07:27:58;;;;;;;;;;;;;;;1.92;74.65;98432.63;3089125;28;19930;-77
2021/01/31 07:29:31;;;;;;;;;;;;;;;1.91;74.49;98431.78;3087893;28;19966;-77
2021/01/31 07:31:05;;;;;;;;;;;;;;;1.94;74.71;98433.31;3090236;28;19941;-77
2021/01/31 07:32:50;;;;;;;;;;;;;;;2.00;74.63;98431.00;3097585;28;20348;-77
2021/01/31 07:34:27;;;;;;;;;;;;;;;2.05;74.25;98435.06;3103520;28;19930;-77
2021/01/31 07:36:00;;;;;;;;;;;;;;;1.98;74.41;98435.59;3095798;28;20408;-77
2021/01/31 07:37:44;;;;;;;;;;;;;;;1.94;73.94;98434.16;3089722;28;19973;-77
2021/01/31 07:39:27;;;;;;;;;;;;;;;1.99;74.81;98437.22;3094801;28;20035;-77
2021/01/31 07:41:18;;;;;;;;;;;;;;;2.10;74.24;98443.41;3094423;28;20020;-78
2021/01/31 07:42:53;;;;;;;;;;;;;;;2.16;74.02;98448.16;3085392;28;19940;-78
2021/01/31 07:44:27;;;;;;;;;;;;;;;2.02;73.97;98439.63;3098500;28;19933;-78
2021/01/31 07:46:02;;;;;;;;;;;;;;;2.08;74.09;98440.09;3095202;28;19953;-77
2021/01/31 07:47:34;;;;;;;;;;;;;;;2.15;73.78;98439.41;3096502;28;19926;-78
2021/01/31 07:49:06;;;;;;;;;;;;;;;2.16;73.89;98448.16;3092875;28;19965;-78
2021/01/31 07:50:38;;;;;;;;;;;;;;;2.11;74.10;98442.44;3096746;28;20024;-78
2021/01/31 07:52:09;;;;;;;;;;;;;;;2.24;73.76;98437.81;3103302;28;19925;-78
2021/01/31 07:53:41;;;;;;;;;;;;;;;2.23;73.62;98441.41;3093258;28;19953;-77
2021/01/31 07:55:16;;;;;;;;;;;;;;;2.19;73.76;98434.69;3101404;28;19926;-79
2021/01/31 07:56:48;;;;;;;;;;;;;;;2.17;73.61;98426.94;3091126;28;19925;-77
2021/01/31 07:58:31;;;;;;;;;;;;;;;2.18;73.54;98427.75;3096926;28;19968;-77
2021/01/31 08:00:17;;;;;;;;;;;;;;;2.25;73.62;98433.34;3093755;28;20012;-78
2021/01/31 08:01:49;;;;;;;;;;;;;;;2.29;73.53;98426.84;3103502;28;20034;-78
2021/01/31 08:03:25;;;;;;;;;;;;;;;2.21;73.91;98435.41;3112636;28;20428;-78
2021/01/31 08:04:56;;;;;;;;;;;;;;;2.24;74.08;98442.22;3098241;28;19925;-78
2021/01/31 08:06:40;;;;;;;;;;;;;;;2.38;73.59;98443.69;3106279;28;19948;-77
2021/01/31 08:08:32;;;;;;;;;;;;;;;2.32;73.47;98437.97;3098745;28;19961;-78
2021/01/31 08:10:04;;;;;;;;;;;;;;;2.29;73.33;98445.31;3095059;28;19930;-78
2021/01/31 08:11:52;;;;;;;;;;;;;;;2.23;73.45;98441.41;3101141;28;19964;-77
2021/01/31 08:13:37;;;;;;;;;;;;;;;2.16;73.59;98429.72;3105283;28;19926;-77
2021/01/31 08:15:10;;;;;;;;;;;;;;;2.22;73.70;98450.28;3096435;28;19926;-77
2021/01/31 08:16:53;;;;;;;;;;;;;;;2.28;73.45;98441.00;3110282;28;19926;-77
2021/01/31 08:18:25;;;;;;;;;;;;;;;2.25;73.34;98446.53;3101732;28;21170;-77
2021/01/31 08:20:10;;;;;;;;;;;;;;;2.18;73.79;98444.44;3107947;28;19925;-79
2021/01/31 08:21:49;;;;;;;;;;;;;;;2.27;73.29;98436.69;3094379;28;19981;-79